sensor_id;sensor_type;location;lat;lon;timestamp;temperature;humidity
12452;DHT22;6291;48.924;12.204;2022-12-16T00:03:16;-0.40;99.90
12452;DHT22;6291;48.924;12.204;2022-12-16T00:08:20;-0.40;99.90
12452;DHT22;6291;48.924;12.204;2022-12-16T00:13:23;-1.80;99.90
12452;DHT22;6291;48.924;12.204;2022-12-16T00:18:28;-0.10;99.90
12452;DHT22;6291;48.924;12.204;2022-12-16T00:23:32;-0.30;99.90
12452;DHT22;6291;48.924;12.204;2022-12-16T00:28:37;-0.50;99.90
12452;DHT22;6291;48.924;12.204;2022-12-16T00:33:42;-0.50;99.90
12452;DHT22;6291;48.924;12.204;2022-12-16T00:38:46;1.20;99.90
12452;DHT22;6291;48.924;12.204;2022-12-16T00:43:49;-0.50;99.90
12452;DHT22;6291;48.924;12.204;2022-12-16T00:48:54;2.30;99.90
12452;DHT22;6291;48.924;12.204;2022-12-16T00:53:57;-0.40;99.90
12452;DHT22;6291;48.924;12.204;2022-12-16T00:59:01;-0.60;99.90
12452;DHT22;6291;48.924;12.204;2022-12-16T01:04:05;-0.30;99.90
12452;DHT22;6291;48.924;12.204;2022-12-16T01:09:09;-0.40;99.90
12452;DHT22;6291;48.924;12.204;2022-12-16T01:14:12;-0.40;99.90
12452;DHT22;6291;48.924;12.204;2022-12-16T01:19:17;-0.20;99.90
12452;DHT22;6291;48.924;12.204;2022-12-16T01:24:20;-0.30;99.90
12452;DHT22;6291;48.924;12.204;2022-12-16T01:29:24;-0.20;99.90
12452;DHT22;6291;48.924;12.204;2022-12-16T01:34:28;-0.20;99.90
12452;DHT22;6291;48.924;12.204;2022-12-16T01:39:32;-0.20;99.90
12452;DHT22;6291;48.924;12.204;2022-12-16T01:44:36;-0.50;99.90
12452;DHT22;6291;48.924;12.204;2022-12-16T01:49:43;-0.50;99.90
12452;DHT22;6291;48.924;12.204;2022-12-16T01:54:50;0.00;99.90
12452;DHT22;6291;48.924;12.204;2022-12-16T01:59:56;-0.50;99.90
12452;DHT22;6291;48.924;12.204;2022-12-16T02:05:01;-0.20;99.90
12452;DHT22;6291;48.924;12.204;2022-12-16T02:10:26;-0.40;99.90
12452;DHT22;6291;48.924;12.204;2022-12-16T02:15:38;0.60;99.90
12452;DHT22;6291;48.924;12.204;2022-12-16T02:21:05;-0.30;99.90
12452;DHT22;6291;48.924;12.204;2022-12-16T02:26:37;-0.50;99.90
12452;DHT22;6291;48.924;12.204;2022-12-16T02:31:53;-0.80;99.90
12452;DHT22;6291;48.924;12.204;2022-12-16T02:37:08;-0.80;99.90
12452;DHT22;6291;48.924;12.204;2022-12-16T02:42:20;-0.60;99.90
12452;DHT22;6291;48.924;12.204;2022-12-16T02:47:30;-0.70;99.90
12452;DHT22;6291;48.924;12.204;2022-12-16T02:52:34;-0.50;99.90
12452;DHT22;6291;48.924;12.204;2022-12-16T02:57:49;-0.40;99.90
12452;DHT22;6291;48.924;12.204;2022-12-16T03:02:58;-0.40;99.90
12452;DHT22;6291;48.924;12.204;2022-12-16T03:08:05;-0.40;99.90
12452;DHT22;6291;48.924;12.204;2022-12-16T03:13:10;-0.40;99.90
12452;DHT22;6291;48.924;12.204;2022-12-16T03:18:18;-0.40;99.90
12452;DHT22;6291;48.924;12.204;2022-12-16T03:23:25;-0.50;99.90
12452;DHT22;6291;48.924;12.204;2022-12-16T03:28:38;3.50;99.90
12452;DHT22;6291;48.924;12.204;2022-12-16T03:33:48;-0.40;99.90
12452;DHT22;6291;48.924;12.204;2022-12-16T03:38:52;-0.50;99.90
12452;DHT22;6291;48.924;12.204;2022-12-16T03:43:57;-0.50;99.90
12452;DHT22;6291;48.924;12.204;2022-12-16T03:49:02;-0.60;99.90
12452;DHT22;6291;48.924;12.204;2022-12-16T03:54:05;-0.40;99.90
12452;DHT22;6291;48.924;12.204;2022-12-16T03:59:09;-0.60;99.90
12452;DHT22;6291;48.924;12.204;2022-12-16T04:04:14;-0.60;99.90
12452;DHT22;6291;48.924;12.204;2022-12-16T04:09:17;-0.60;99.90
12452;DHT22;6291;48.924;12.204;2022-12-16T04:14:21;-0.80;99.90
12452;DHT22;6291;48.924;12.204;2022-12-16T04:19:44;-0.80;99.90
12452;DHT22;6291;48.924;12.204;2022-12-16T04:25:08;-0.80;99.90
12452;DHT22;6291;48.924;12.204;2022-12-16T04:30:13;-0.80;99.90
12452;DHT22;6291;48.924;12.204;2022-12-16T04:35:24;-0.70;99.90
12452;DHT22;6291;48.924;12.204;2022-12-16T04:40:45;-0.80;99.90
12452;DHT22;6291;48.924;12.204;2022-12-16T04:46:05;-0.80;99.90
12452;DHT22;6291;48.924;12.204;2022-12-16T04:51:27;-0.80;99.90
12452;DHT22;6291;48.924;12.204;2022-12-16T04:56:48;-0.80;99.90
12452;DHT22;6291;48.924;12.204;2022-12-16T05:02:09;-0.80;99.90
12452;DHT22;6291;48.924;12.204;2022-12-16T05:07:31;-0.80;99.90
12452;DHT22;6291;48.924;12.204;2022-12-16T05:12:52;-0.80;99.90
12452;DHT22;6291;48.924;12.204;2022-12-16T05:18:14;-0.80;99.90
12452;DHT22;6291;48.924;12.204;2022-12-16T05:23:36;-0.80;99.90
12452;DHT22;6291;48.924;12.204;2022-12-16T05:28:57;-0.80;99.90
12452;DHT22;6291;48.924;12.204;2022-12-16T05:34:32;-0.90;99.90
12452;DHT22;6291;48.924;12.204;2022-12-16T05:39:55;-0.70;99.90
12452;DHT22;6291;48.924;12.204;2022-12-16T05:45:16;-0.80;99.90
12452;DHT22;6291;48.924;12.204;2022-12-16T05:50:37;-0.90;99.90
12452;DHT22;6291;48.924;12.204;2022-12-16T05:56:01;-0.80;99.90
12452;DHT22;6291;48.924;12.204;2022-12-16T06:01:22;-1.00;99.90
12452;DHT22;6291;48.924;12.204;2022-12-16T06:06:42;-0.90;99.90
12452;DHT22;6291;48.924;12.204;2022-12-16T06:12:05;-1.00;99.90
12452;DHT22;6291;48.924;12.204;2022-12-16T06:17:26;-1.00;99.90
12452;DHT22;6291;48.924;12.204;2022-12-16T06:22:50;-1.10;99.90
12452;DHT22;6291;48.924;12.204;2022-12-16T06:28:12;-1.20;99.90
12452;DHT22;6291;48.924;12.204;2022-12-16T06:33:33;-1.00;99.90
12452;DHT22;6291;48.924;12.204;2022-12-16T06:38:56;-1.10;99.90
12452;DHT22;6291;48.924;12.204;2022-12-16T06:44:18;-1.10;99.90
12452;DHT22;6291;48.924;12.204;2022-12-16T06:49:38;-1.10;99.90
12452;DHT22;6291;48.924;12.204;2022-12-16T06:54:59;-1.00;99.90
12452;DHT22;6291;48.924;12.204;2022-12-16T07:00:21;-0.90;99.90
12452;DHT22;6291;48.924;12.204;2022-12-16T07:05:42;-0.90;99.90
12452;DHT22;6291;48.924;12.204;2022-12-16T07:11:03;-1.00;99.90
12452;DHT22;6291;48.924;12.204;2022-12-16T07:16:25;-1.10;99.90
12452;DHT22;6291;48.924;12.204;2022-12-16T07:21:45;-1.10;99.90
12452;DHT22;6291;48.924;12.204;2022-12-16T07:27:06;-0.80;99.90
12452;DHT22;6291;48.924;12.204;2022-12-16T07:32:28;-1.40;99.90
12452;DHT22;6291;48.924;12.204;2022-12-16T07:38:03;-1.00;99.90
12452;DHT22;6291;48.924;12.204;2022-12-16T07:43:24;-1.00;99.90
12452;DHT22;6291;48.924;12.204;2022-12-16T07:48:46;-1.20;99.90
12452;DHT22;6291;48.924;12.204;2022-12-16T07:54:07;-0.50;99.90
12452;DHT22;6291;48.924;12.204;2022-12-16T07:59:28;-1.10;99.90
12452;DHT22;6291;48.924;12.204;2022-12-16T08:04:49;-1.00;99.90
12452;DHT22;6291;48.924;12.204;2022-12-16T08:10:10;-1.10;99.90
12452;DHT22;6291;48.924;12.204;2022-12-16T08:15:31;-1.10;99.90
12452;DHT22;6291;48.924;12.204;2022-12-16T08:20:55;-0.80;99.90
12452;DHT22;6291;48.924;12.204;2022-12-16T08:26:16;-0.50;99.90
12452;DHT22;6291;48.924;12.204;2022-12-16T08:31:37;-0.50;1.00
12452;DHT22;6291;48.924;12.204;2022-12-16T08:36:59;-0.70;1.00
12452;DHT22;6291;48.924;12.204;2022-12-16T08:42:35;-0.50;1.00
12452;DHT22;6291;48.924;12.204;2022-12-16T08:47:57;-0.50;1.00
12452;DHT22;6291;48.924;12.204;2022-12-16T08:53:19;-0.50;1.00
12452;DHT22;6291;48.924;12.204;2022-12-16T08:58:45;-0.40;99.90
12452;DHT22;6291;48.924;12.204;2022-12-16T09:04:06;-0.30;1.00
12452;DHT22;6291;48.924;12.204;2022-12-16T09:09:29;-0.20;99.90
12452;DHT22;6291;48.924;12.204;2022-12-16T09:14:50;-0.20;99.90
12452;DHT22;6291;48.924;12.204;2022-12-16T09:20:11;0.20;99.90
12452;DHT22;6291;48.924;12.204;2022-12-16T09:25:32;0.30;99.90
12452;DHT22;6291;48.924;12.204;2022-12-16T09:30:56;0.40;99.90
12452;DHT22;6291;48.924;12.204;2022-12-16T09:36:17;0.40;99.90
12452;DHT22;6291;48.924;12.204;2022-12-16T09:41:42;0.50;99.90
12452;DHT22;6291;48.924;12.204;2022-12-16T09:47:09;0.60;99.90
12452;DHT22;6291;48.924;12.204;2022-12-16T09:52:38;0.90;99.90
12452;DHT22;6291;48.924;12.204;2022-12-16T09:58:02;0.10;99.90
12452;DHT22;6291;48.924;12.204;2022-12-16T10:03:25;0.00;99.90
12452;DHT22;6291;48.924;12.204;2022-12-16T10:08:53;-0.10;99.90
12452;DHT22;6291;48.924;12.204;2022-12-16T10:14:19;0.20;99.90
12452;DHT22;6291;48.924;12.204;2022-12-16T10:19:49;0.40;99.90
12452;DHT22;6291;48.924;12.204;2022-12-16T10:25:18;0.50;99.90
12452;DHT22;6291;48.924;12.204;2022-12-16T10:30:41;0.40;99.90
12452;DHT22;6291;48.924;12.204;2022-12-16T10:36:02;0.30;99.90
12452;DHT22;6291;48.924;12.204;2022-12-16T10:41:25;0.60;99.90
12452;DHT22;6291;48.924;12.204;2022-12-16T10:46:47;0.90;99.90
12452;DHT22;6291;48.924;12.204;2022-12-16T10:52:11;0.30;99.90
12452;DHT22;6291;48.924;12.204;2022-12-16T10:57:37;0.60;99.90
12452;DHT22;6291;48.924;12.204;2022-12-16T11:03:21;0.50;99.90
12452;DHT22;6291;48.924;12.204;2022-12-16T11:08:42;0.80;99.90
12452;DHT22;6291;48.924;12.204;2022-12-16T11:14:20;0.90;99.90
12452;DHT22;6291;48.924;12.204;2022-12-16T11:19:43;1.00;99.90
12452;DHT22;6291;48.924;12.204;2022-12-16T11:25:05;1.10;99.90
12452;DHT22;6291;48.924;12.204;2022-12-16T11:30:26;1.20;99.90
12452;DHT22;6291;48.924;12.204;2022-12-16T11:35:53;1.20;99.90
12452;DHT22;6291;48.924;12.204;2022-12-16T11:41:22;1.00;99.90
12452;DHT22;6291;48.924;12.204;2022-12-16T11:46:45;1.10;99.90
12452;DHT22;6291;48.924;12.204;2022-12-16T11:52:10;0.90;99.90
12452;DHT22;6291;48.924;12.204;2022-12-16T11:57:46;1.30;99.90
12452;DHT22;6291;48.924;12.204;2022-12-16T12:03:10;2.10;99.90
12452;DHT22;6291;48.924;12.204;2022-12-16T12:08:38;2.50;99.90
12452;DHT22;6291;48.924;12.204;2022-12-16T12:14:08;2.10;99.90
12452;DHT22;6291;48.924;12.204;2022-12-16T12:19:39;1.70;99.90
12452;DHT22;6291;48.924;12.204;2022-12-16T12:25:09;1.60;99.90
12452;DHT22;6291;48.924;12.204;2022-12-16T12:30:40;0.90;99.90
12452;DHT22;6291;48.924;12.204;2022-12-16T12:36:11;0.30;1.00
12452;DHT22;6291;48.924;12.204;2022-12-16T12:42:02;0.60;1.00
12452;DHT22;6291;48.924;12.204;2022-12-16T12:47:26;0.10;1.00
12452;DHT22;6291;48.924;12.204;2022-12-16T12:53:13;0.30;1.00
12452;DHT22;6291;48.924;12.204;2022-12-16T12:58:41;1.80;1.00
12452;DHT22;6291;48.924;12.204;2022-12-16T13:04:08;0.40;1.00
12452;DHT22;6291;48.924;12.204;2022-12-16T13:09:32;0.50;1.00
12452;DHT22;6291;48.924;12.204;2022-12-16T13:15:02;0.60;1.00
12452;DHT22;6291;48.924;12.204;2022-12-16T13:20:41;0.80;1.00
12452;DHT22;6291;48.924;12.204;2022-12-16T13:26:04;0.60;1.00
12452;DHT22;6291;48.924;12.204;2022-12-16T13:31:27;0.60;1.00
12452;DHT22;6291;48.924;12.204;2022-12-16T13:36:59;0.60;1.00
12452;DHT22;6291;48.924;12.204;2022-12-16T13:42:47;0.20;1.00
12452;DHT22;6291;48.924;12.204;2022-12-16T13:48:26;0.50;1.00
12452;DHT22;6291;48.924;12.204;2022-12-16T13:53:50;0.30;1.00
12452;DHT22;6291;48.924;12.204;2022-12-16T13:59:16;0.00;1.00
12452;DHT22;6291;48.924;12.204;2022-12-16T14:04:42;0.20;1.00
12452;DHT22;6291;48.924;12.204;2022-12-16T14:10:04;0.20;1.00
12452;DHT22;6291;48.924;12.204;2022-12-16T14:15:28;0.20;1.00
12452;DHT22;6291;48.924;12.204;2022-12-16T14:20:54;0.20;1.00
12452;DHT22;6291;48.924;12.204;2022-12-16T14:26:19;0.30;1.00
12452;DHT22;6291;48.924;12.204;2022-12-16T14:31:41;0.40;1.00
12452;DHT22;6291;48.924;12.204;2022-12-16T14:37:11;0.20;1.00
12452;DHT22;6291;48.924;12.204;2022-12-16T14:42:32;0.10;1.00
12452;DHT22;6291;48.924;12.204;2022-12-16T14:47:53;0.10;1.00
12452;DHT22;6291;48.924;12.204;2022-12-16T14:53:18;0.00;99.90
12452;DHT22;6291;48.924;12.204;2022-12-16T14:58:39;-0.20;1.00
12452;DHT22;6291;48.924;12.204;2022-12-16T15:04:01;0.00;99.90
12452;DHT22;6291;48.924;12.204;2022-12-16T15:09:27;-0.30;1.00
12452;DHT22;6291;48.924;12.204;2022-12-16T15:14:49;-0.40;1.00
12452;DHT22;6291;48.924;12.204;2022-12-16T15:20:16;0.30;1.00
12452;DHT22;6291;48.924;12.204;2022-12-16T15:25:39;-0.20;1.00
12452;DHT22;6291;48.924;12.204;2022-12-16T15:31:13;-0.30;1.00
12452;DHT22;6291;48.924;12.204;2022-12-16T15:36:35;-0.50;1.00
12452;DHT22;6291;48.924;12.204;2022-12-16T15:47:20;-0.40;1.00
12452;DHT22;6291;48.924;12.204;2022-12-16T15:52:45;-0.30;99.90
12452;DHT22;6291;48.924;12.204;2022-12-16T15:58:13;-0.20;1.00
12452;DHT22;6291;48.924;12.204;2022-12-16T16:03:34;-0.20;1.00
12452;DHT22;6291;48.924;12.204;2022-12-16T16:08:57;-0.30;30.40
12452;DHT22;6291;48.924;12.204;2022-12-16T16:14:16;-0.20;95.20
12452;DHT22;6291;48.924;12.204;2022-12-16T16:19:37;-0.30;99.90
12452;DHT22;6291;48.924;12.204;2022-12-16T16:25:05;-0.30;1.00
12452;DHT22;6291;48.924;12.204;2022-12-16T16:30:27;-0.40;99.90
12452;DHT22;6291;48.924;12.204;2022-12-16T16:35:48;0.10;99.90
12452;DHT22;6291;48.924;12.204;2022-12-16T16:41:13;0.00;1.00
12452;DHT22;6291;48.924;12.204;2022-12-16T16:46:37;-0.10;1.00
12452;DHT22;6291;48.924;12.204;2022-12-16T16:51:58;0.00;1.00
12452;DHT22;6291;48.924;12.204;2022-12-16T16:57:18;-0.10;1.00
12452;DHT22;6291;48.924;12.204;2022-12-16T17:02:40;-0.30;1.00
12452;DHT22;6291;48.924;12.204;2022-12-16T17:08:04;-0.10;1.00
12452;DHT22;6291;48.924;12.204;2022-12-16T17:13:25;-0.20;1.00
12452;DHT22;6291;48.924;12.204;2022-12-16T17:18:47;-0.20;1.00
12452;DHT22;6291;48.924;12.204;2022-12-16T17:24:08;-0.30;1.00
12452;DHT22;6291;48.924;12.204;2022-12-16T17:29:29;-0.20;1.00
12452;DHT22;6291;48.924;12.204;2022-12-16T17:34:51;-0.20;1.00
12452;DHT22;6291;48.924;12.204;2022-12-16T17:40:24;-0.20;1.00
12452;DHT22;6291;48.924;12.204;2022-12-16T17:45:57;-0.20;1.00
12452;DHT22;6291;48.924;12.204;2022-12-16T17:51:25;-0.20;1.00
12452;DHT22;6291;48.924;12.204;2022-12-16T17:56:46;-0.20;1.00
12452;DHT22;6291;48.924;12.204;2022-12-16T18:02:21;-0.40;1.00
12452;DHT22;6291;48.924;12.204;2022-12-16T18:07:44;-0.30;1.00
12452;DHT22;6291;48.924;12.204;2022-12-16T18:13:04;-0.30;1.00
12452;DHT22;6291;48.924;12.204;2022-12-16T18:18:25;-0.30;1.00
12452;DHT22;6291;48.924;12.204;2022-12-16T18:23:48;-0.20;1.00
12452;DHT22;6291;48.924;12.204;2022-12-16T18:29:09;-0.30;1.00
12452;DHT22;6291;48.924;12.204;2022-12-16T18:34:29;-0.40;1.00
12452;DHT22;6291;48.924;12.204;2022-12-16T18:40:00;-0.50;1.00
12452;DHT22;6291;48.924;12.204;2022-12-16T18:45:21;-0.50;1.00
12452;DHT22;6291;48.924;12.204;2022-12-16T18:50:42;-0.40;1.00
12452;DHT22;6291;48.924;12.204;2022-12-16T18:56:06;-0.60;1.00
12452;DHT22;6291;48.924;12.204;2022-12-16T19:01:27;-0.70;1.00
12452;DHT22;6291;48.924;12.204;2022-12-16T19:06:48;-0.60;1.00
12452;DHT22;6291;48.924;12.204;2022-12-16T19:12:10;0.10;1.00
12452;DHT22;6291;48.924;12.204;2022-12-16T19:17:30;-0.50;1.00
12452;DHT22;6291;48.924;12.204;2022-12-16T19:22:52;-0.40;1.00
12452;DHT22;6291;48.924;12.204;2022-12-16T19:28:15;-0.50;1.00
12452;DHT22;6291;48.924;12.204;2022-12-16T19:33:36;-0.70;1.00
12452;DHT22;6291;48.924;12.204;2022-12-16T19:38:57;-0.60;1.00
12452;DHT22;6291;48.924;12.204;2022-12-16T19:44:19;-0.80;1.00
12452;DHT22;6291;48.924;12.204;2022-12-16T19:49:40;-0.70;1.00
12452;DHT22;6291;48.924;12.204;2022-12-16T19:55:01;-0.60;1.00
12452;DHT22;6291;48.924;12.204;2022-12-16T20:00:23;-0.70;1.00
12452;DHT22;6291;48.924;12.204;2022-12-16T20:05:44;-0.80;1.00
12452;DHT22;6291;48.924;12.204;2022-12-16T20:11:06;-1.00;1.00
12452;DHT22;6291;48.924;12.204;2022-12-16T20:16:28;-0.80;1.00
12452;DHT22;6291;48.924;12.204;2022-12-16T20:21:57;-0.90;1.00
12452;DHT22;6291;48.924;12.204;2022-12-16T20:27:18;-0.80;1.00
12452;DHT22;6291;48.924;12.204;2022-12-16T20:32:40;-1.00;1.00
12452;DHT22;6291;48.924;12.204;2022-12-16T20:38:00;-0.90;1.00
12452;DHT22;6291;48.924;12.204;2022-12-16T20:43:21;-0.90;1.00
12452;DHT22;6291;48.924;12.204;2022-12-16T20:48:45;-1.00;1.00
12452;DHT22;6291;48.924;12.204;2022-12-16T20:54:08;-1.10;1.00
12452;DHT22;6291;48.924;12.204;2022-12-16T20:59:29;-1.10;1.00
12452;DHT22;6291;48.924;12.204;2022-12-16T21:04:52;-1.20;1.00
12452;DHT22;6291;48.924;12.204;2022-12-16T21:10:13;-1.10;1.00
12452;DHT22;6291;48.924;12.204;2022-12-16T21:15:35;-1.10;1.00
12452;DHT22;6291;48.924;12.204;2022-12-16T21:20:59;-1.10;1.00
12452;DHT22;6291;48.924;12.204;2022-12-16T21:26:20;-1.30;1.00
12452;DHT22;6291;48.924;12.204;2022-12-16T21:31:41;-1.40;1.00
12452;DHT22;6291;48.924;12.204;2022-12-16T21:37:04;-1.30;1.00
12452;DHT22;6291;48.924;12.204;2022-12-16T21:42:24;-1.30;1.00
12452;DHT22;6291;48.924;12.204;2022-12-16T21:47:45;-1.40;1.00
12452;DHT22;6291;48.924;12.204;2022-12-16T21:53:07;-1.50;1.00
12452;DHT22;6291;48.924;12.204;2022-12-16T21:58:29;-4.90;1.00
12452;DHT22;6291;48.924;12.204;2022-12-16T22:03:50;-1.40;1.00
12452;DHT22;6291;48.924;12.204;2022-12-16T22:09:13;-1.50;1.00
12452;DHT22;6291;48.924;12.204;2022-12-16T22:14:34;-1.40;1.00
12452;DHT22;6291;48.924;12.204;2022-12-16T22:19:56;-1.40;1.00
12452;DHT22;6291;48.924;12.204;2022-12-16T22:25:19;-1.40;1.00
12452;DHT22;6291;48.924;12.204;2022-12-16T22:30:40;-1.30;1.00
12452;DHT22;6291;48.924;12.204;2022-12-16T22:36:02;-1.30;1.00
12452;DHT22;6291;48.924;12.204;2022-12-16T22:41:24;-1.40;1.00
12452;DHT22;6291;48.924;12.204;2022-12-16T22:46:42;-1.60;1.00
12452;DHT22;6291;48.924;12.204;2022-12-16T22:52:03;-1.60;1.00
12452;DHT22;6291;48.924;12.204;2022-12-16T22:57:27;-1.50;1.00
12452;DHT22;6291;48.924;12.204;2022-12-16T23:02:48;-1.30;1.00
12452;DHT22;6291;48.924;12.204;2022-12-16T23:08:11;-1.60;1.00
12452;DHT22;6291;48.924;12.204;2022-12-16T23:13:33;-1.70;1.00
12452;DHT22;6291;48.924;12.204;2022-12-16T23:18:54;-1.80;1.00
12452;DHT22;6291;48.924;12.204;2022-12-16T23:24:15;-1.80;1.00
12452;DHT22;6291;48.924;12.204;2022-12-16T23:29:38;-1.70;99.90
12452;DHT22;6291;48.924;12.204;2022-12-16T23:34:59;-1.70;1.00
12452;DHT22;6291;48.924;12.204;2022-12-16T23:40:20;-1.70;1.00
12452;DHT22;6291;48.924;12.204;2022-12-16T23:45:43;-1.70;99.90
12452;DHT22;6291;48.924;12.204;2022-12-16T23:51:04;-1.70;1.00
12452;DHT22;6291;48.924;12.204;2022-12-16T23:56:33;-1.90;1.00
